createdAt,value
2023-12-03T00:01:18.772Z,94.12
2023-12-03T00:02:59.132Z,93.88
2023-12-03T00:04:39.625Z,93.71
2023-12-03T00:06:20.215Z,93.66
2023-12-03T00:08:00.485Z,93.71
2023-12-03T00:09:41.004Z,93.76
2023-12-03T00:11:21.282Z,93.8
2023-12-03T00:13:01.730Z,93.89
2023-12-03T00:14:42.195Z,93.96
2023-12-03T00:16:22.509Z,94.09
2023-12-03T00:18:02.871Z,94.05
2023-12-03T00:19:43.372Z,94.01
2023-12-03T00:21:24.195Z,94.01
2023-12-03T00:23:04.098Z,93.91
2023-12-03T00:24:44.551Z,93.79
2023-12-03T00:26:25.013Z,93.82
2023-12-03T00:28:05.439Z,93.9
2023-12-03T00:29:45.770Z,93.82
2023-12-03T00:31:26.270Z,93.82
2023-12-03T00:33:06.698Z,93.57
2023-12-03T00:34:47.009Z,93.39
2023-12-03T00:36:27.446Z,93.32
2023-12-03T00:38:07.807Z,93.28
2023-12-03T00:39:48.159Z,93.28
2023-12-03T00:41:28.573Z,93.32
2023-12-03T00:43:09.028Z,93.35
2023-12-03T00:44:49.373Z,93.26
2023-12-03T00:46:29.821Z,93.21
2023-12-03T00:48:10.389Z,93.17
2023-12-03T00:49:50.685Z,93.1
2023-12-03T00:51:31.080Z,93.03
2023-12-03T00:53:11.457Z,93.07
2023-12-03T00:54:51.890Z,93.03
2023-12-03T00:56:32.243Z,93.03
2023-12-03T00:58:12.567Z,92.97
2023-12-03T00:59:52.920Z,92.86
2023-12-03T01:01:33.425Z,92.8
2023-12-03T01:03:13.846Z,92.84
2023-12-03T01:04:54.407Z,92.85
2023-12-03T01:06:35.012Z,92.83
2023-12-03T01:08:15.110Z,92.92
2023-12-03T01:09:55.560Z,92.91
2023-12-03T01:11:36.877Z,93.03
2023-12-03T01:13:16.465Z,93.14
2023-12-03T01:14:56.805Z,93.42
2023-12-03T01:16:37.216Z,93.62
2023-12-03T01:18:17.744Z,93.71
2023-12-03T01:19:57.964Z,93.93
2023-12-03T01:21:38.331Z,94.12
2023-12-03T01:23:18.748Z,94.19
2023-12-03T01:24:59.185Z,94.41
2023-12-03T01:26:39.425Z,94.63
2023-12-03T01:28:19.838Z,94.86
2023-12-03T01:30:00.290Z,95.1
2023-12-03T01:31:40.538Z,95.28
2023-12-03T01:33:21.265Z,95.49
2023-12-03T01:35:01.469Z,95.68
2023-12-03T01:36:42.025Z,95.8
2023-12-03T01:38:22.182Z,95.92
2023-12-03T01:40:02.592Z,96.02
2023-12-03T01:41:42.897Z,96.04
2023-12-03T01:43:23.262Z,96.07
2023-12-03T01:45:03.653Z,96.14
2023-12-03T01:46:44.043Z,96.18
2023-12-03T01:48:24.523Z,96.2
2023-12-03T01:50:04.863Z,96.21
2023-12-03T01:51:45.413Z,96.19
2023-12-03T01:53:25.833Z,96.19
2023-12-03T01:55:06.228Z,96.23
2023-12-03T01:56:46.682Z,96.2
2023-12-03T01:58:27.109Z,96.22
2023-12-03T02:00:07.459Z,96.16
2023-12-03T02:01:47.890Z,96.19
2023-12-03T02:03:28.337Z,96.21
2023-12-03T02:05:08.974Z,96.24
2023-12-03T02:06:49.289Z,96.26
2023-12-03T02:08:29.596Z,96.27
2023-12-03T02:10:10.018Z,96.31
2023-12-03T02:11:50.468Z,96.36
2023-12-03T02:13:30.917Z,96.38
2023-12-03T02:15:11.400Z,96.39
2023-12-03T02:16:51.712Z,96.38
2023-12-03T02:18:32.274Z,96.39
2023-12-03T02:20:12.620Z,96.4
2023-12-03T02:21:53.124Z,96.47
2023-12-03T02:23:33.570Z,96.44
2023-12-03T02:25:14.008Z,96.45
2023-12-03T02:26:54.400Z,96.49
2023-12-03T02:28:34.807Z,96.58
2023-12-03T02:30:15.281Z,96.61
2023-12-03T02:31:55.658Z,96.7
2023-12-03T02:33:36.076Z,96.81
2023-12-03T02:35:16.378Z,96.86
2023-12-03T02:36:56.696Z,96.98
2023-12-03T02:38:37.147Z,97.06
2023-12-03T02:40:17.570Z,97.17
2023-12-03T02:41:57.976Z,97.24
2023-12-03T02:43:38.360Z,97.29
2023-12-03T02:45:18.840Z,97.33
2023-12-03T02:46:59.241Z,97.39
2023-12-03T02:48:39.757Z,97.38
2023-12-03T02:50:20.068Z,97.42
2023-12-03T02:52:00.588Z,97.48
2023-12-03T02:53:41.014Z,97.43
2023-12-03T02:55:21.348Z,97.48
2023-12-03T02:57:01.760Z,97.47
2023-12-03T02:58:42.170Z,97.42
2023-12-03T03:00:22.768Z,97.44
2023-12-03T03:02:03.158Z,97.39
2023-12-03T03:05:24.089Z,97.35
2023-12-03T03:07:04.498Z,97.3
2023-12-03T03:08:44.911Z,97.26
2023-12-03T03:10:25.378Z,97.16
2023-12-03T03:12:05.834Z,97.08
2023-12-03T03:13:46.268Z,96.95
2023-12-03T03:15:26.730Z,96.88
2023-12-03T03:17:07.059Z,96.82
2023-12-03T03:18:47.608Z,96.79
2023-12-03T03:20:28.083Z,96.75
2023-12-03T03:22:08.492Z,96.73
2023-12-03T03:23:48.944Z,96.75
2023-12-03T03:25:29.416Z,96.71
2023-12-03T03:27:09.889Z,96.73
2023-12-03T03:28:50.276Z,96.71
2023-12-03T03:30:30.850Z,96.72
2023-12-03T03:32:11.178Z,96.77
2023-12-03T03:33:51.652Z,96.78
2023-12-03T03:35:32.075Z,96.84
2023-12-03T03:37:12.430Z,96.9
2023-12-03T03:38:52.835Z,96.96
2023-12-03T03:40:33.248Z,97.02
2023-12-03T03:42:13.612Z,97.02
2023-12-03T03:43:53.878Z,97.13
2023-12-03T03:45:34.366Z,97.12
2023-12-03T03:47:14.720Z,97.18
2023-12-03T03:48:55.210Z,97.18
2023-12-03T03:50:35.676Z,97.22
2023-12-03T03:52:16.089Z,97.29
2023-12-03T03:53:56.578Z,97.27
2023-12-03T03:55:37.044Z,97.29
2023-12-03T03:57:17.428Z,97.29
2023-12-03T03:58:57.836Z,97.33
2023-12-03T04:00:38.266Z,97.33
2023-12-03T04:02:18.707Z,97.35
2023-12-03T04:03:59.154Z,97.38
2023-12-03T04:05:39.399Z,97.45
2023-12-03T04:07:19.905Z,97.52
2023-12-03T04:09:00.142Z,97.5
2023-12-03T04:10:40.570Z,97.5
2023-12-03T04:12:20.932Z,97.52
2023-12-03T04:14:01.372Z,97.55
2023-12-03T04:15:41.745Z,97.56
2023-12-03T04:17:22.118Z,97.63
2023-12-03T04:19:02.720Z,97.63
2023-12-03T04:20:42.974Z,97.65
2023-12-03T04:22:23.403Z,97.64
2023-12-03T04:24:03.734Z,97.63
2023-12-03T04:25:44.103Z,97.64
2023-12-03T04:27:24.455Z,97.62
2023-12-03T04:29:04.888Z,97.62
2023-12-03T04:30:45.272Z,97.57
2023-12-03T04:32:25.767Z,97.59
2023-12-03T04:34:06.061Z,97.56
2023-12-03T04:35:46.347Z,97.56
2023-12-03T04:37:26.797Z,97.61
2023-12-03T04:39:07.176Z,97.56
2023-12-03T04:40:47.549Z,97.63
2023-12-03T04:42:27.933Z,97.59
2023-12-03T04:44:08.340Z,97.56
2023-12-03T04:45:48.755Z,97.51
2023-12-03T04:47:29.317Z,97.46
2023-12-03T04:49:09.656Z,97.43
2023-12-03T04:50:49.998Z,97.45
2023-12-03T04:52:30.446Z,97.42
2023-12-03T04:54:10.984Z,97.44
2023-12-03T04:55:51.304Z,97.42
2023-12-03T04:57:31.704Z,97.44
2023-12-03T04:59:11.981Z,97.44
2023-12-03T05:00:52.482Z,97.44
2023-12-03T05:02:32.765Z,97.42
2023-12-03T05:04:13.277Z,97.4
2023-12-03T05:05:53.539Z,97.38
2023-12-03T05:07:34.183Z,97.35
2023-12-03T05:09:14.515Z,97.38
2023-12-03T05:10:54.805Z,97.38
2023-12-03T05:12:35.284Z,97.29
2023-12-03T05:14:15.756Z,97.27
2023-12-03T05:15:56.110Z,97.19
2023-12-03T05:17:38.284Z,97.15
2023-12-03T05:19:17.061Z,97.18
2023-12-03T05:20:57.361Z,97.17
2023-12-03T05:22:37.785Z,97.15
2023-12-03T05:24:18.245Z,97.15
2023-12-03T05:25:58.758Z,97.03
2023-12-03T05:27:39.090Z,97.06
2023-12-03T05:29:19.474Z,97.03
2023-12-03T05:30:59.917Z,97.04
2023-12-03T05:32:40.670Z,96.99
2023-12-03T05:34:20.903Z,96.9
2023-12-03T05:36:01.177Z,96.86
2023-12-03T05:37:41.628Z,96.81
2023-12-03T05:39:22.076Z,96.74
2023-12-03T05:41:02.444Z,96.73
2023-12-03T05:42:42.855Z,96.77
2023-12-03T05:44:23.299Z,96.72
2023-12-03T05:46:03.724Z,96.68
2023-12-03T05:47:44.191Z,96.61
2023-12-03T05:49:24.635Z,96.57
2023-12-03T05:51:04.951Z,96.55
2023-12-03T05:52:45.355Z,96.5
2023-12-03T05:54:25.787Z,96.46
2023-12-03T05:56:06.212Z,96.41
2023-12-03T05:57:46.681Z,96.38
2023-12-03T05:59:27.036Z,96.35
2023-12-03T06:01:07.417Z,96.32
2023-12-03T06:02:47.875Z,96.3
2023-12-03T06:04:28.306Z,96.27
2023-12-03T06:06:08.727Z,96.24
2023-12-03T06:07:49.333Z,96.28
2023-12-03T06:09:29.548Z,96.31
2023-12-03T06:11:09.922Z,96.3
2023-12-03T06:12:50.285Z,96.29
2023-12-03T06:14:30.641Z,96.33
2023-12-03T06:16:11.053Z,96.31
2023-12-03T06:17:51.592Z,96.35
2023-12-03T06:19:31.937Z,96.35
2023-12-03T06:21:12.344Z,96.39
2023-12-03T06:22:52.706Z,96.47
2023-12-03T06:24:33.186Z,96.46
2023-12-03T06:26:13.518Z,96.49
2023-12-03T06:27:53.873Z,96.51
2023-12-03T06:29:34.246Z,96.52
2023-12-03T06:31:14.644Z,96.59
2023-12-03T06:32:55.029Z,96.61
2023-12-03T06:34:35.363Z,96.73
2023-12-03T06:36:15.768Z,96.76
2023-12-03T06:37:56.151Z,96.76
2023-12-03T06:39:36.599Z,96.81
2023-12-03T06:41:16.953Z,96.83
2023-12-03T06:42:57.443Z,96.89
2023-12-03T06:44:44.177Z,96.94
2023-12-03T06:46:18.148Z,97.06
2023-12-03T06:47:58.619Z,97.16
2023-12-03T06:49:39.114Z,97.24
2023-12-03T06:51:19.491Z,97.36
2023-12-03T06:52:59.801Z,97.4
2023-12-03T06:54:40.230Z,97.49
2023-12-03T06:56:20.633Z,97.51
2023-12-03T06:58:01.105Z,97.58
2023-12-03T06:59:41.518Z,97.55
2023-12-03T07:01:21.908Z,97.56
2023-12-03T07:03:02.296Z,97.55
2023-12-03T07:04:43.107Z,97.63
2023-12-03T07:06:23.151Z,97.68
2023-12-03T07:08:03.515Z,97.71
2023-12-03T07:09:43.925Z,97.7
2023-12-03T07:11:24.399Z,97.74
2023-12-03T07:13:04.721Z,97.79
2023-12-03T07:14:45.114Z,97.83
2023-12-03T07:16:25.591Z,97.83
2023-12-03T07:18:05.981Z,97.87
2023-12-03T07:19:46.412Z,97.92
2023-12-03T07:21:26.847Z,97.95
2023-12-03T07:23:07.151Z,98
2023-12-03T07:24:47.548Z,98.05
2023-12-03T07:26:27.931Z,98.11
2023-12-03T07:28:08.395Z,98.09
2023-12-03T07:29:48.791Z,98.12
2023-12-03T07:31:29.205Z,98.18
2023-12-03T07:33:09.737Z,98.2
2023-12-03T07:34:49.994Z,98.2
2023-12-03T07:36:30.349Z,98.18
2023-12-03T07:38:10.782Z,98.19
2023-12-03T07:39:51.267Z,98.15
2023-12-03T07:41:31.666Z,98.17
2023-12-03T07:43:12.078Z,98.12
2023-12-03T07:44:52.498Z,98.1
2023-12-03T07:46:32.910Z,98.07
2023-12-03T07:48:13.360Z,98.13
2023-12-03T07:49:53.807Z,98.14
2023-12-03T07:51:34.218Z,98.13
2023-12-03T07:53:14.634Z,98.14
2023-12-03T07:54:55.039Z,98.14
2023-12-03T07:56:35.346Z,98.1
2023-12-03T07:58:15.769Z,98.08
2023-12-03T07:59:56.216Z,98.06
2023-12-03T08:01:36.624Z,98.03
2023-12-03T08:03:17.016Z,97.95
2023-12-03T08:04:57.515Z,97.97
2023-12-03T08:06:37.887Z,97.92
2023-12-03T08:08:18.357Z,97.88
2023-12-03T08:09:58.818Z,97.89
2023-12-03T08:11:39.255Z,97.83
2023-12-03T08:13:19.786Z,97.87
2023-12-03T08:15:00.246Z,97.81
2023-12-03T08:16:40.559Z,97.81
2023-12-03T08:18:20.963Z,97.77
2023-12-03T08:20:01.374Z,97.71
2023-12-03T08:21:41.675Z,97.67
2023-12-03T08:23:22.045Z,97.57
2023-12-03T08:25:02.352Z,97.51
2023-12-03T08:26:42.777Z,97.48
2023-12-03T08:28:23.247Z,97.54
2023-12-03T08:30:03.687Z,97.47
2023-12-03T08:31:44.533Z,97.47
2023-12-03T08:33:24.457Z,97.37
2023-12-03T08:35:04.811Z,97.37
2023-12-03T08:36:45.220Z,97.36
2023-12-03T08:38:25.578Z,97.38
2023-12-03T08:40:06.028Z,97.3
2023-12-03T08:41:46.404Z,97.31
2023-12-03T08:43:26.860Z,97.33
2023-12-03T08:45:07.276Z,97.32
2023-12-03T08:46:47.673Z,97.33
2023-12-03T08:48:28.209Z,97.31
2023-12-03T08:50:08.602Z,97.28
2023-12-03T08:51:49.106Z,97.29
2023-12-03T08:53:29.467Z,97.23
2023-12-03T08:55:09.889Z,97.24
2023-12-03T08:56:50.270Z,97.21
2023-12-03T08:58:30.594Z,97.17
2023-12-03T09:00:10.939Z,97.2
2023-12-03T09:01:51.319Z,97.15
2023-12-03T09:03:31.899Z,97.15
2023-12-03T09:05:12.169Z,97.13
2023-12-03T09:06:52.661Z,97.05
2023-12-03T09:08:32.950Z,96.97
2023-12-03T09:10:13.323Z,96.86
2023-12-03T09:11:53.813Z,96.84
2023-12-03T09:13:34.172Z,96.82
2023-12-03T09:15:14.581Z,96.84
2023-12-03T09:16:55.022Z,96.84
2023-12-03T09:18:35.805Z,96.74
2023-12-03T09:20:15.796Z,96.68
2023-12-03T09:21:56.301Z,96.64
2023-12-03T09:23:36.651Z,96.62
2023-12-03T09:25:16.949Z,96.53
2023-12-03T09:26:57.374Z,96.59
2023-12-03T09:28:37.809Z,96.54
2023-12-03T09:30:18.212Z,96.5
2023-12-03T09:31:58.593Z,96.5
2023-12-03T09:33:39.144Z,96.49
2023-12-03T09:35:19.483Z,96.53
2023-12-03T09:36:59.945Z,96.6
2023-12-03T09:38:42.799Z,96.57
2023-12-03T09:40:20.758Z,96.57
2023-12-03T09:42:01.130Z,96.52
2023-12-03T09:43:41.653Z,96.53
2023-12-03T09:45:21.997Z,96.61
2023-12-03T09:47:02.417Z,96.49
2023-12-03T09:48:42.930Z,96.44
2023-12-03T09:50:23.209Z,96.38
2023-12-03T09:52:03.680Z,96.34
2023-12-03T09:53:44.057Z,96.3
2023-12-03T09:55:24.443Z,96.29
2023-12-03T09:57:04.812Z,96.17
2023-12-03T09:58:45.196Z,96.06
2023-12-03T10:00:25.518Z,95.98
2023-12-03T10:02:06.118Z,95.87
2023-12-03T10:03:46.802Z,95.83
2023-12-03T10:05:27.062Z,95.72
2023-12-03T10:07:07.340Z,95.66
2023-12-03T10:08:47.819Z,95.66
2023-12-03T10:10:28.219Z,95.71
2023-12-03T10:12:08.458Z,95.78
2023-12-03T10:13:48.950Z,95.82
2023-12-03T10:15:29.368Z,95.77
2023-12-03T10:17:09.799Z,95.54
2023-12-03T10:18:50.293Z,95.24
2023-12-03T10:20:30.719Z,95.13
2023-12-03T10:22:11.169Z,95.17
2023-12-03T10:23:51.613Z,95.12
2023-12-03T10:25:32.132Z,94.8
2023-12-03T10:27:12.569Z,94.6
2023-12-03T10:28:52.906Z,94.61
2023-12-03T10:30:33.391Z,94.64
2023-12-03T10:32:13.852Z,94.58
2023-12-03T10:33:54.308Z,94.4
2023-12-03T10:35:34.760Z,94.32
2023-12-03T10:37:15.084Z,94.23
2023-12-03T10:38:55.557Z,94.11
2023-12-03T10:40:36.022Z,94.1
2023-12-03T10:42:16.515Z,94.12
2023-12-03T10:43:56.968Z,94.08
2023-12-03T10:45:37.964Z,93.83
2023-12-03T10:47:17.822Z,93.69
2023-12-03T10:48:58.286Z,93.65
2023-12-03T10:50:38.663Z,93.55
2023-12-03T10:52:19.112Z,93.32
2023-12-03T10:53:59.556Z,93.09
2023-12-03T10:55:40.034Z,92.97
2023-12-03T10:57:20.564Z,92.68
2023-12-03T10:59:00.956Z,92.7
2023-12-03T11:00:41.521Z,92.36
2023-12-03T11:02:21.754Z,91.69
2023-12-03T11:04:02.303Z,91.3
2023-12-03T11:05:42.784Z,90.77
2023-12-03T11:07:23.124Z,90.62
2023-12-03T11:09:03.607Z,90.68
2023-12-03T11:10:44.014Z,90.39
2023-12-03T11:12:24.551Z,90.1
2023-12-03T11:14:04.852Z,89.62
2023-12-03T11:15:45.282Z,89.1
2023-12-03T11:17:25.692Z,89.2
2023-12-03T11:19:06.260Z,89.02
2023-12-03T11:20:46.630Z,88.88
2023-12-03T11:22:27.051Z,88.35
2023-12-03T11:24:07.434Z,88.27
2023-12-03T11:25:47.933Z,87.73
2023-12-03T11:27:28.394Z,86.79
2023-12-03T11:29:08.820Z,85.62
2023-12-03T11:30:49.363Z,86.54
2023-12-03T11:32:35.582Z,84.44
2023-12-03T11:34:10.361Z,84.52
2023-12-03T11:35:50.630Z,85.27
2023-12-03T11:37:31.097Z,84.49
2023-12-03T11:39:11.544Z,84.09
2023-12-03T11:40:51.990Z,84.01
2023-12-03T11:42:32.395Z,84
2023-12-03T11:44:12.824Z,84.33
2023-12-03T11:45:53.281Z,84.13
2023-12-03T11:47:33.683Z,84.15
2023-12-03T11:49:14.142Z,84.36
2023-12-03T11:50:54.435Z,84.3
2023-12-03T11:52:34.905Z,84.31
2023-12-03T11:54:15.296Z,84.4
2023-12-03T11:55:55.783Z,84.3
2023-12-03T11:57:36.372Z,83.94
2023-12-03T11:59:16.668Z,83.44
2023-12-03T12:00:57.008Z,83.33
2023-12-03T12:02:37.526Z,83.69
2023-12-03T12:04:17.963Z,83.11
2023-12-03T12:05:58.446Z,82.93
2023-12-03T12:07:38.791Z,82.51
2023-12-03T12:09:19.203Z,80.7
2023-12-03T12:10:59.715Z,80.63
2023-12-03T12:12:40.162Z,80.64
2023-12-03T12:14:20.763Z,79.02
2023-12-03T12:16:01.056Z,79.24
2023-12-03T12:17:41.460Z,78.48
2023-12-03T12:19:22.072Z,77.98
2023-12-03T12:21:02.362Z,78.9
2023-12-03T12:22:42.795Z,78.73
2023-12-03T12:24:23.247Z,78.81
2023-12-03T12:26:03.741Z,77.97
2023-12-03T12:27:44.149Z,76.88
2023-12-03T12:29:24.629Z,75.54
2023-12-03T12:31:05.052Z,75.87
2023-12-03T12:32:45.533Z,77.55
2023-12-03T12:34:26.048Z,78.23
2023-12-03T12:36:06.270Z,77.57
2023-12-03T12:37:46.736Z,77.98
2023-12-03T12:39:27.215Z,78.92
2023-12-03T12:41:07.579Z,76.98
2023-12-03T12:42:48.085Z,76.13
2023-12-03T12:44:28.433Z,75.68
2023-12-03T12:46:08.979Z,76.49
2023-12-03T12:47:56.844Z,75.67
2023-12-03T12:49:37.427Z,74.89
2023-12-03T12:51:17.736Z,74.8
2023-12-03T12:52:58.194Z,74.69
2023-12-03T12:54:38.627Z,73.91
2023-12-03T12:56:19.008Z,74.1
2023-12-03T12:57:59.591Z,73.38
2023-12-03T12:59:39.903Z,73.96
2023-12-03T13:01:20.404Z,73.41
2023-12-03T13:03:00.825Z,73.8
2023-12-03T13:04:41.484Z,74.03
2023-12-03T13:06:21.689Z,73.2
2023-12-03T13:08:02.105Z,72.52
2023-12-03T13:09:42.632Z,73.51
2023-12-03T13:11:23.052Z,73.01
2023-12-03T13:13:03.546Z,71.9
2023-12-03T13:14:44.021Z,72.12
2023-12-03T13:16:24.521Z,72.3
2023-12-03T13:18:12.776Z,72.92
2023-12-03T13:19:52.427Z,73.52
2023-12-03T13:21:32.830Z,73.35
2023-12-03T13:23:14.035Z,72.62
2023-12-03T13:24:54.477Z,72.59
2023-12-03T13:26:34.831Z,73.04
2023-12-03T13:28:15.221Z,73.4
2023-12-03T13:29:55.846Z,73.4
2023-12-03T13:31:36.271Z,72.84
2023-12-03T13:33:16.795Z,73.04
2023-12-03T13:34:57.106Z,73.69
2023-12-03T13:36:41.589Z,73.85
2023-12-03T13:38:21.938Z,73.45
2023-12-03T13:40:02.515Z,74.57
2023-12-03T13:41:42.814Z,74.07
2023-12-03T13:43:23.217Z,74.57
2023-12-03T13:45:03.716Z,74.93
2023-12-03T13:46:44.072Z,76.25
2023-12-03T13:48:24.727Z,77.15
2023-12-03T13:50:04.962Z,77.6
2023-12-03T13:51:45.477Z,78.37
2023-12-03T13:53:25.781Z,79.19
2023-12-03T13:55:06.213Z,79.99
2023-12-03T13:56:46.707Z,80.12
2023-12-03T13:58:27.084Z,80.48
2023-12-03T14:00:07.578Z,80.99
2023-12-03T14:01:47.913Z,81.47
2023-12-03T14:03:28.291Z,82.22
2023-12-03T14:05:20.075Z,82.49
2023-12-03T14:06:49.199Z,83.03
2023-12-03T14:08:29.665Z,83.67
2023-12-03T14:10:10.054Z,84.39
2023-12-03T14:11:50.598Z,84.43
2023-12-03T14:13:30.999Z,85.04
2023-12-03T14:15:11.399Z,85.54
2023-12-03T14:16:51.804Z,85.62
2023-12-03T14:18:32.538Z,85.84
2023-12-03T14:20:12.649Z,86.45
2023-12-03T14:21:53.439Z,86.2
2023-12-03T14:23:33.430Z,86.35
2023-12-03T14:25:13.875Z,86.79
2023-12-03T14:26:54.358Z,86.87
2023-12-03T14:28:34.745Z,86.88
2023-12-03T14:30:15.251Z,87.07
2023-12-03T14:31:55.650Z,87.1
2023-12-03T14:33:36.157Z,87.13
2023-12-03T14:35:16.420Z,87.36
2023-12-03T14:36:56.825Z,87.53
2023-12-03T14:38:37.267Z,87.68
2023-12-03T14:40:17.739Z,87.63
2023-12-03T14:41:58.164Z,87.69
2023-12-03T14:43:38.578Z,87.81
2023-12-03T14:45:19.043Z,88.01
2023-12-03T14:46:59.490Z,88.14
2023-12-03T14:48:40.014Z,88.25
2023-12-03T14:50:20.411Z,88.34
2023-12-03T14:52:00.888Z,88.56
2023-12-03T14:53:41.194Z,88.63
2023-12-03T14:55:21.622Z,88.82
2023-12-03T14:57:02.046Z,88.91
2023-12-03T14:58:42.340Z,89.02
2023-12-03T15:00:22.790Z,88.99
2023-12-03T15:02:03.176Z,89.3
2023-12-03T15:03:43.579Z,89.38
2023-12-03T15:05:23.874Z,89.48
2023-12-03T15:07:04.267Z,89.63
2023-12-03T15:08:44.713Z,89.87
2023-12-03T15:10:25.070Z,89.72
2023-12-03T15:12:05.571Z,89.58
2023-12-03T15:13:45.968Z,89.58
2023-12-03T15:15:26.278Z,89.92
2023-12-03T15:17:06.682Z,90.08
2023-12-03T15:18:47.212Z,89.94
2023-12-03T15:20:27.627Z,90.03
2023-12-03T15:22:08.017Z,90.23
2023-12-03T15:23:48.540Z,90.26
2023-12-03T15:25:28.980Z,90.43
2023-12-03T15:27:09.497Z,90.33
2023-12-03T15:28:50.088Z,90.59
2023-12-03T15:30:30.644Z,90.62
2023-12-03T15:32:10.825Z,90.67
2023-12-03T15:33:51.341Z,90.69
2023-12-03T15:35:31.837Z,90.79
2023-12-03T15:37:12.189Z,91.18
2023-12-03T15:38:52.577Z,91.11
2023-12-03T15:40:33.025Z,91.13
2023-12-03T15:42:13.466Z,90.97
2023-12-03T15:43:53.877Z,90.91
2023-12-03T15:45:34.222Z,90.77
2023-12-03T15:47:14.558Z,90.98
2023-12-03T15:48:59.116Z,90.95
2023-12-03T15:50:35.376Z,90.95
2023-12-03T15:52:15.774Z,91.08
2023-12-03T15:53:56.129Z,91.26
2023-12-03T15:55:36.655Z,91.19
2023-12-03T15:57:17.117Z,91.23
2023-12-03T15:58:57.546Z,91.29
2023-12-03T16:00:38.012Z,91.2
2023-12-03T16:02:18.502Z,91.25
2023-12-03T16:03:59.004Z,91.48
2023-12-03T16:05:39.509Z,91.42
2023-12-03T16:07:19.845Z,91.59
2023-12-03T16:09:00.300Z,91.84
2023-12-03T16:10:40.740Z,92.03
2023-12-03T16:12:21.241Z,92.15
2023-12-03T16:14:01.726Z,92.02
2023-12-03T16:15:42.111Z,92.12
2023-12-03T16:17:27.533Z,91.98
2023-12-03T16:19:03.021Z,92.01
2023-12-03T16:20:43.372Z,92.05
2023-12-03T16:22:23.811Z,92.08
2023-12-03T16:24:04.219Z,92.3
2023-12-03T16:25:44.701Z,92.52
2023-12-03T16:27:25.120Z,92.73
2023-12-03T16:29:06.662Z,92.54
2023-12-03T16:30:45.997Z,92.51
2023-12-03T16:32:26.425Z,92.76
2023-12-03T16:34:06.989Z,92.59
2023-12-03T16:35:47.490Z,92.57
2023-12-03T16:37:27.786Z,92.71
2023-12-03T16:39:08.220Z,92.84
2023-12-03T16:40:48.713Z,92.75
2023-12-03T16:42:30.560Z,92.79
2023-12-03T16:44:09.672Z,92.68
2023-12-03T16:45:50.101Z,92.57
2023-12-03T16:47:30.708Z,92.6
2023-12-03T16:49:11.107Z,92.72
2023-12-03T16:50:51.409Z,92.73
2023-12-03T16:52:31.938Z,92.89
2023-12-03T16:54:12.450Z,92.92
2023-12-03T16:55:52.915Z,93.05
2023-12-03T16:57:33.273Z,93.1
2023-12-03T16:59:13.679Z,93.05
2023-12-03T17:00:54.197Z,93.03
2023-12-03T17:02:34.653Z,93.06
2023-12-03T17:04:15.044Z,93.13
2023-12-03T17:05:55.619Z,93
2023-12-03T17:07:36.037Z,93.01
2023-12-03T17:09:16.493Z,92.92
2023-12-03T17:10:56.883Z,92.88
2023-12-03T17:12:44.593Z,92.9
2023-12-03T17:14:17.730Z,92.82
2023-12-03T17:15:58.380Z,92.79
2023-12-03T17:17:38.793Z,92.81
2023-12-03T17:19:19.341Z,92.81
2023-12-03T17:20:59.671Z,93.13
2023-12-03T17:22:40.057Z,93.13
2023-12-03T17:24:20.508Z,93.01
2023-12-03T17:26:00.928Z,92.87
2023-12-03T17:27:41.357Z,92.93
2023-12-03T17:29:21.784Z,93.03
2023-12-03T17:31:02.269Z,93.03
2023-12-03T17:32:42.664Z,92.91
2023-12-03T17:34:23.172Z,92.86
2023-12-03T17:36:03.515Z,93.17
2023-12-03T17:37:43.975Z,93.32
2023-12-03T17:39:24.345Z,93.39
2023-12-03T17:41:04.749Z,93.55
2023-12-03T17:42:45.186Z,93.55
2023-12-03T17:44:25.631Z,93.64
2023-12-03T17:46:06.159Z,93.61
2023-12-03T17:47:46.499Z,93.66
2023-12-03T17:49:26.904Z,93.64
2023-12-03T17:51:07.227Z,93.72
2023-12-03T17:52:47.737Z,93.77
2023-12-03T17:54:28.239Z,93.81
2023-12-03T17:56:10.710Z,93.82
2023-12-03T17:57:49.130Z,93.85
2023-12-03T17:59:29.546Z,93.74
2023-12-03T18:01:10.103Z,93.74
2023-12-03T18:02:50.524Z,93.72
2023-12-03T18:04:31.003Z,93.63
2023-12-03T18:06:11.437Z,93.5
2023-12-03T18:07:51.896Z,93.52
2023-12-03T18:09:32.331Z,93.48
2023-12-03T18:11:12.709Z,93.43
2023-12-03T18:12:53.182Z,93.39
2023-12-03T18:14:33.567Z,93.3
2023-12-03T18:16:14.037Z,93.28
2023-12-03T18:17:57.441Z,93.28
2023-12-03T18:19:34.984Z,93.25
2023-12-03T18:21:15.265Z,93.33
2023-12-03T18:22:55.704Z,93.28
2023-12-03T18:24:36.152Z,93.15
2023-12-03T18:26:16.518Z,93.11
2023-12-03T18:27:56.990Z,93.12
2023-12-03T18:29:37.356Z,93.16
2023-12-03T18:31:17.852Z,93.22
2023-12-03T18:32:58.324Z,93.17
2023-12-03T18:34:38.592Z,92.96
2023-12-03T18:36:19.034Z,92.86
2023-12-03T18:37:59.452Z,92.76
2023-12-03T18:39:39.919Z,92.53
2023-12-03T18:41:20.301Z,92.5
2023-12-03T18:43:00.735Z,92.54
2023-12-03T18:44:41.280Z,92.51
2023-12-03T18:46:21.547Z,92.31
2023-12-03T18:48:02.013Z,92.41
2023-12-03T18:49:42.399Z,92.47
2023-12-03T18:51:22.751Z,92.4
2023-12-03T18:53:03.200Z,92.33
2023-12-03T18:54:43.708Z,92.32
2023-12-03T18:56:23.973Z,92.23
2023-12-03T18:58:04.499Z,92.1
2023-12-03T18:59:46.263Z,91.98
2023-12-03T19:01:25.284Z,92.01
2023-12-03T19:03:05.793Z,91.83
2023-12-03T19:04:46.214Z,91.66
2023-12-03T19:06:26.706Z,91.19
2023-12-03T19:08:07.070Z,90.93
2023-12-03T19:09:47.571Z,90.79
2023-12-03T19:11:27.921Z,90.49
2023-12-03T19:13:16.276Z,90.15
2023-12-03T19:14:48.774Z,89.89
2023-12-03T19:16:29.264Z,90.1
2023-12-03T19:18:09.613Z,90.54
2023-12-03T19:19:49.997Z,90.76
2023-12-03T19:21:30.345Z,90.99
2023-12-03T19:23:10.649Z,91.17
2023-12-03T19:24:51.083Z,91.25
2023-12-03T19:26:31.500Z,91.62
2023-12-03T19:28:11.830Z,91.67
2023-12-03T19:29:52.265Z,91.74
2023-12-03T19:31:32.756Z,91.84
2023-12-03T19:33:13.247Z,91.9
2023-12-03T19:34:53.682Z,92.02
2023-12-03T19:36:34.077Z,92.09
2023-12-03T19:38:14.395Z,92.12
2023-12-03T19:39:54.803Z,91.99
2023-12-03T19:41:35.105Z,91.72
2023-12-03T19:43:15.460Z,91.66
2023-12-03T19:44:55.827Z,91.71
2023-12-03T19:46:36.204Z,91.74
2023-12-03T19:48:16.625Z,91.74
2023-12-03T19:49:56.947Z,91.76
2023-12-03T19:51:37.334Z,91.99
2023-12-03T19:53:17.674Z,92.17
2023-12-03T19:54:58.136Z,92.24
2023-12-03T19:56:38.558Z,92.18
2023-12-03T19:58:19.113Z,92.09
2023-12-03T19:59:59.332Z,92.09
2023-12-03T20:01:39.756Z,92.06
2023-12-03T20:03:20.055Z,92.13
2023-12-03T20:05:00.781Z,92.07
2023-12-03T20:06:40.821Z,92.08
2023-12-03T20:08:21.166Z,92.15
2023-12-03T20:10:01.948Z,92.11
2023-12-03T20:11:41.940Z,92.04
2023-12-03T20:13:22.363Z,92.12
2023-12-03T20:15:02.673Z,92.12
2023-12-03T20:16:43.029Z,92.2
2023-12-03T20:18:23.437Z,92.26
2023-12-03T20:20:03.824Z,92.34
2023-12-03T20:21:44.169Z,92.48
2023-12-03T20:23:24.480Z,92.43
2023-12-03T20:25:04.986Z,92.35
2023-12-03T20:26:45.222Z,92.39
2023-12-03T20:28:25.551Z,92.48
2023-12-03T20:30:05.886Z,92.75
2023-12-03T20:31:46.287Z,92.8
2023-12-03T20:33:26.708Z,92.88
2023-12-03T20:35:06.917Z,93.02
2023-12-03T20:36:47.448Z,92.94
2023-12-03T20:38:27.697Z,92.77
2023-12-03T20:40:08.092Z,92.59
2023-12-03T20:41:48.462Z,92.39
2023-12-03T20:43:28.772Z,92.43
2023-12-03T20:45:09.096Z,92.33
2023-12-03T20:46:49.546Z,92.14
2023-12-03T20:48:29.995Z,92.2
2023-12-03T20:50:10.358Z,92.14
2023-12-03T20:51:50.805Z,92.13
2023-12-03T20:53:32.060Z,92.11
2023-12-03T20:55:11.642Z,92.12
2023-12-03T20:56:51.941Z,92.12
2023-12-03T20:58:32.331Z,92.12
2023-12-03T21:00:12.733Z,92.05
2023-12-03T21:01:53.218Z,92.02
2023-12-03T21:03:33.642Z,91.93
2023-12-03T21:05:13.912Z,91.89
2023-12-03T21:06:54.396Z,92.05
2023-12-03T21:08:34.673Z,92.09
2023-12-03T21:10:15.026Z,92.19
2023-12-03T21:11:55.466Z,92.18
2023-12-03T21:13:35.913Z,92.12
2023-12-03T21:15:16.343Z,92
2023-12-03T21:16:56.647Z,91.87
2023-12-03T21:18:37.181Z,91.73
2023-12-03T21:20:17.486Z,91.69
2023-12-03T21:21:58.014Z,91.7
2023-12-03T21:23:38.408Z,91.7
2023-12-03T21:25:18.824Z,91.59
2023-12-03T21:26:59.271Z,91.62
2023-12-03T21:28:39.641Z,91.65
2023-12-03T21:30:20.083Z,91.69
2023-12-03T21:32:00.600Z,91.64
2023-12-03T21:33:41.135Z,91.6
2023-12-03T21:35:21.480Z,91.57
2023-12-03T21:37:02.052Z,91.62
2023-12-03T21:38:42.566Z,91.66
2023-12-03T21:40:22.990Z,91.62